sensor_id;sensor_type;location;lat;lon;timestamp;P1;durP1;ratioP1;P2;durP2;ratioP2
22711;SDS011;11523;50.390;8.072;2022-12-22T03:15:56;16.23;;;13.35;;
22711;SDS011;11523;50.390;8.072;2022-12-22T03:18:46;15.68;;;13.27;;
22711;SDS011;11523;50.390;8.072;2022-12-22T03:21:31;13.95;;;12.23;;
22711;SDS011;11523;50.390;8.072;2022-12-22T03:24:15;14.90;;;12.23;;
22711;SDS011;11523;50.390;8.072;2022-12-22T03:27:00;17.30;;;13.40;;
22711;SDS011;11523;50.390;8.072;2022-12-22T03:29:26;20.80;;;15.80;;
22711;SDS011;11523;50.390;8.072;2022-12-22T03:31:52;19.40;;;15.90;;
22711;SDS011;11523;50.390;8.072;2022-12-22T03:34:18;18.40;;;14.88;;
22711;SDS011;11523;50.390;8.072;2022-12-22T03:36:44;19.60;;;14.25;;
22711;SDS011;11523;50.390;8.072;2022-12-22T03:39:10;17.25;;;14.10;;
22711;SDS011;11523;50.390;8.072;2022-12-22T03:41:35;17.85;;;14.80;;
22711;SDS011;11523;50.390;8.072;2022-12-22T03:44:20;14.40;;;12.90;;
22711;SDS011;11523;50.390;8.072;2022-12-22T03:47:05;15.65;;;13.23;;
22711;SDS011;11523;50.390;8.072;2022-12-22T03:49:30;15.85;;;13.60;;
22711;SDS011;11523;50.390;8.072;2022-12-22T03:51:56;16.83;;;13.68;;
22711;SDS011;11523;50.390;8.072;2022-12-22T03:54:23;15.52;;;12.93;;
22711;SDS011;11523;50.390;8.072;2022-12-22T03:56:50;17.67;;;13.85;;
22711;SDS011;11523;50.390;8.072;2022-12-22T03:59:16;16.25;;;13.55;;
22711;SDS011;11523;50.390;8.072;2022-12-22T04:01:52;17.35;;;14.57;;
22711;SDS011;11523;50.390;8.072;2022-12-22T04:04:19;20.83;;;14.25;;
22711;SDS011;11523;50.390;8.072;2022-12-22T04:06:45;17.05;;;13.77;;
22711;SDS011;11523;50.390;8.072;2022-12-22T04:09:11;19.45;;;15.68;;
22711;SDS011;11523;50.390;8.072;2022-12-22T04:14:12;16.83;;;13.73;;
22711;SDS011;11523;50.390;8.072;2022-12-22T04:16:38;20.48;;;14.75;;
22711;SDS011;11523;50.390;8.072;2022-12-22T04:19:04;21.40;;;14.43;;
22711;SDS011;11523;50.390;8.072;2022-12-22T04:21:34;15.10;;;12.88;;
22711;SDS011;11523;50.390;8.072;2022-12-22T04:24:00;17.35;;;12.68;;
22711;SDS011;11523;50.390;8.072;2022-12-22T04:26:26;18.27;;;13.65;;
22711;SDS011;11523;50.390;8.072;2022-12-22T04:28:52;17.90;;;14.13;;
22711;SDS011;11523;50.390;8.072;2022-12-22T04:31:19;16.17;;;12.90;;
22711;SDS011;11523;50.390;8.072;2022-12-22T04:33:45;17.13;;;13.00;;
22711;SDS011;11523;50.390;8.072;2022-12-22T04:36:11;18.45;;;14.30;;
22711;SDS011;11523;50.390;8.072;2022-12-22T04:38:37;16.67;;;13.30;;
22711;SDS011;11523;50.390;8.072;2022-12-22T04:41:04;16.45;;;13.77;;
22711;SDS011;11523;50.390;8.072;2022-12-22T04:43:30;16.38;;;12.60;;
22711;SDS011;11523;50.390;8.072;2022-12-22T04:45:56;18.48;;;14.23;;
22711;SDS011;11523;50.390;8.072;2022-12-22T04:48:22;15.23;;;12.60;;
22711;SDS011;11523;50.390;8.072;2022-12-22T04:50:50;19.13;;;13.77;;
22711;SDS011;11523;50.390;8.072;2022-12-22T04:53:16;15.45;;;13.25;;
22711;SDS011;11523;50.390;8.072;2022-12-22T04:55:48;15.95;;;12.65;;
22711;SDS011;11523;50.390;8.072;2022-12-22T04:58:14;14.00;;;12.07;;
22711;SDS011;11523;50.390;8.072;2022-12-22T05:00:41;14.77;;;11.80;;
22711;SDS011;11523;50.390;8.072;2022-12-22T05:03:07;16.27;;;11.98;;
22711;SDS011;11523;50.390;8.072;2022-12-22T05:05:33;15.10;;;11.93;;
22711;SDS011;11523;50.390;8.072;2022-12-22T05:07:59;14.18;;;11.18;;
22711;SDS011;11523;50.390;8.072;2022-12-22T05:10:25;11.82;;;10.63;;
22711;SDS011;11523;50.390;8.072;2022-12-22T05:12:51;12.20;;;10.43;;
22711;SDS011;11523;50.390;8.072;2022-12-22T05:15:20;10.32;;;9.27;;
22711;SDS011;11523;50.390;8.072;2022-12-22T05:17:46;10.55;;;8.98;;
22711;SDS011;11523;50.390;8.072;2022-12-22T05:20:12;11.52;;;10.32;;
22711;SDS011;11523;50.390;8.072;2022-12-22T05:22:38;7.80;;;6.88;;
22711;SDS011;11523;50.390;8.072;2022-12-22T05:25:04;8.63;;;6.68;;
22711;SDS011;11523;50.390;8.072;2022-12-22T05:27:30;9.82;;;6.05;;
22711;SDS011;11523;50.390;8.072;2022-12-22T05:29:56;6.20;;;4.40;;
22711;SDS011;11523;50.390;8.072;2022-12-22T05:32:22;4.97;;;3.85;;
22711;SDS011;11523;50.390;8.072;2022-12-22T05:34:48;10.25;;;9.13;;
22711;SDS011;11523;50.390;8.072;2022-12-22T05:37:14;8.93;;;8.02;;
22711;SDS011;11523;50.390;8.072;2022-12-22T05:39:40;10.48;;;8.88;;
22711;SDS011;11523;50.390;8.072;2022-12-22T05:42:06;9.68;;;7.60;;
22711;SDS011;11523;50.390;8.072;2022-12-22T05:44:31;8.50;;;5.80;;
22711;SDS011;11523;50.390;8.072;2022-12-22T05:46:57;8.73;;;7.82;;
22711;SDS011;11523;50.390;8.072;2022-12-22T05:49:23;8.63;;;7.05;;
22711;SDS011;11523;50.390;8.072;2022-12-22T05:51:49;11.52;;;8.15;;
22711;SDS011;11523;50.390;8.072;2022-12-22T05:54:17;10.63;;;5.90;;
22711;SDS011;11523;50.390;8.072;2022-12-22T05:56:43;4.60;;;1.73;;
22711;SDS011;11523;50.390;8.072;2022-12-22T05:59:09;5.22;;;2.00;;
22711;SDS011;11523;50.390;8.072;2022-12-22T06:01:35;2.70;;;2.08;;
22711;SDS011;11523;50.390;8.072;2022-12-22T06:04:01;4.47;;;2.30;;
22711;SDS011;11523;50.390;8.072;2022-12-22T06:06:27;3.00;;;1.70;;
22711;SDS011;11523;50.390;8.072;2022-12-22T06:08:53;2.50;;;1.90;;
22711;SDS011;11523;50.390;8.072;2022-12-22T06:11:19;4.70;;;1.52;;
22711;SDS011;11523;50.390;8.072;2022-12-22T06:13:45;2.20;;;1.60;;
22711;SDS011;11523;50.390;8.072;2022-12-22T06:16:11;3.53;;;1.70;;
22711;SDS011;11523;50.390;8.072;2022-12-22T06:18:37;1.80;;;1.60;;
22711;SDS011;11523;50.390;8.072;2022-12-22T06:21:03;2.35;;;1.38;;
22711;SDS011;11523;50.390;8.072;2022-12-22T06:23:29;2.72;;;1.08;;
22711;SDS011;11523;50.390;8.072;2022-12-22T06:25:56;1.42;;;1.20;;
22711;SDS011;11523;50.390;8.072;2022-12-22T06:28:22;2.90;;;1.38;;
22711;SDS011;11523;50.390;8.072;2022-12-22T06:30:48;1.40;;;0.95;;
22711;SDS011;11523;50.390;8.072;2022-12-22T06:33:14;1.60;;;0.88;;
22711;SDS011;11523;50.390;8.072;2022-12-22T06:35:40;1.20;;;1.02;;
22711;SDS011;11523;50.390;8.072;2022-12-22T06:38:06;3.40;;;0.95;;
22711;SDS011;11523;50.390;8.072;2022-12-22T06:40:32;0.90;;;0.70;;
22711;SDS011;11523;50.390;8.072;2022-12-22T06:42:58;2.53;;;0.90;;
22711;SDS011;11523;50.390;8.072;2022-12-22T06:45:38;1.48;;;0.90;;
22711;SDS011;11523;50.390;8.072;2022-12-22T06:48:04;0.77;;;0.77;;
22711;SDS011;11523;50.390;8.072;2022-12-22T06:50:30;3.63;;;0.73;;
22711;SDS011;11523;50.390;8.072;2022-12-22T06:52:56;1.13;;;0.60;;
22711;SDS011;11523;50.390;8.072;2022-12-22T06:55:22;1.48;;;0.80;;
22711;SDS011;11523;50.390;8.072;2022-12-22T06:57:48;1.73;;;0.80;;
22711;SDS011;11523;50.390;8.072;2022-12-22T07:00:14;1.88;;;0.80;;
22711;SDS011;11523;50.390;8.072;2022-12-22T07:02:40;3.55;;;1.00;;
22711;SDS011;11523;50.390;8.072;2022-12-22T07:05:06;2.22;;;0.90;;
22711;SDS011;11523;50.390;8.072;2022-12-22T07:07:32;1.38;;;1.00;;
22711;SDS011;11523;50.390;8.072;2022-12-22T07:09:58;2.30;;;1.17;;
22711;SDS011;11523;50.390;8.072;2022-12-22T07:12:24;1.83;;;1.08;;
22711;SDS011;11523;50.390;8.072;2022-12-22T07:14:50;3.65;;;1.30;;
22711;SDS011;11523;50.390;8.072;2022-12-22T07:17:15;1.20;;;0.88;;
22711;SDS011;11523;50.390;8.072;2022-12-22T07:19:41;1.35;;;0.90;;
22711;SDS011;11523;50.390;8.072;2022-12-22T07:22:07;2.47;;;0.98;;
22711;SDS011;11523;50.390;8.072;2022-12-22T07:24:33;0.93;;;0.70;;
22711;SDS011;11523;50.390;8.072;2022-12-22T07:26:59;1.20;;;0.80;;
22711;SDS011;11523;50.390;8.072;2022-12-22T07:29:25;1.38;;;0.60;;
22711;SDS011;11523;50.390;8.072;2022-12-22T07:31:51;1.90;;;0.75;;
22711;SDS011;11523;50.390;8.072;2022-12-22T07:34:17;3.00;;;0.80;;
22711;SDS011;11523;50.390;8.072;2022-12-22T07:36:43;3.05;;;0.93;;
22711;SDS011;11523;50.390;8.072;2022-12-22T07:39:09;1.50;;;0.90;;
22711;SDS011;11523;50.390;8.072;2022-12-22T07:41:36;4.43;;;1.10;;
22711;SDS011;11523;50.390;8.072;2022-12-22T07:44:20;3.03;;;1.30;;
22711;SDS011;11523;50.390;8.072;2022-12-22T07:46:46;6.00;;;1.38;;
22711;SDS011;11523;50.390;8.072;2022-12-22T07:49:12;3.95;;;1.30;;
22711;SDS011;11523;50.390;8.072;2022-12-22T07:54:23;8.50;;;2.53;;
22711;SDS011;11523;50.390;8.072;2022-12-22T07:56:49;6.63;;;1.77;;
22711;SDS011;11523;50.390;8.072;2022-12-22T07:59:15;5.75;;;1.55;;
22711;SDS011;11523;50.390;8.072;2022-12-22T08:01:42;5.63;;;1.70;;
22711;SDS011;11523;50.390;8.072;2022-12-22T08:04:08;6.00;;;1.75;;
22711;SDS011;11523;50.390;8.072;2022-12-22T08:06:34;3.53;;;1.48;;
22711;SDS011;11523;50.390;8.072;2022-12-22T08:09:00;4.70;;;1.38;;
22711;SDS011;11523;50.390;8.072;2022-12-22T08:11:26;3.80;;;1.45;;
22711;SDS011;11523;50.390;8.072;2022-12-22T08:13:52;4.13;;;1.55;;
22711;SDS011;11523;50.390;8.072;2022-12-22T08:16:18;3.40;;;1.35;;
22711;SDS011;11523;50.390;8.072;2022-12-22T08:18:46;2.58;;;1.00;;
22711;SDS011;11523;50.390;8.072;2022-12-22T08:21:12;2.88;;;1.10;;
22711;SDS011;11523;50.390;8.072;2022-12-22T08:23:37;4.63;;;1.10;;
22711;SDS011;11523;50.390;8.072;2022-12-22T08:26:10;5.32;;;1.05;;
22711;SDS011;11523;50.390;8.072;2022-12-22T08:28:37;3.30;;;1.40;;
22711;SDS011;11523;50.390;8.072;2022-12-22T08:31:04;3.70;;;1.38;;
22711;SDS011;11523;50.390;8.072;2022-12-22T08:33:30;5.85;;;1.30;;
22711;SDS011;11523;50.390;8.072;2022-12-22T08:35:56;3.22;;;1.30;;
22711;SDS011;11523;50.390;8.072;2022-12-22T08:38:23;1.15;;;0.85;;
22711;SDS011;11523;50.390;8.072;2022-12-22T08:40:49;3.00;;;1.50;;
22711;SDS011;11523;50.390;8.072;2022-12-22T08:43:15;3.88;;;1.35;;
22711;SDS011;11523;50.390;8.072;2022-12-22T08:45:41;4.47;;;1.58;;
22711;SDS011;11523;50.390;8.072;2022-12-22T08:48:08;4.97;;;1.35;;
22711;SDS011;11523;50.390;8.072;2022-12-22T08:50:34;2.80;;;1.45;;
22711;SDS011;11523;50.390;8.072;2022-12-22T08:53:04;1.63;;;0.88;;
22711;SDS011;11523;50.390;8.072;2022-12-22T08:55:30;2.90;;;1.08;;
22711;SDS011;11523;50.390;8.072;2022-12-22T08:57:56;3.20;;;1.20;;
22711;SDS011;11523;50.390;8.072;2022-12-22T09:00:23;6.35;;;1.10;;
22711;SDS011;11523;50.390;8.072;2022-12-22T09:02:49;3.67;;;1.40;;
22711;SDS011;11523;50.390;8.072;2022-12-22T09:05:15;3.40;;;1.15;;
22711;SDS011;11523;50.390;8.072;2022-12-22T09:07:41;2.40;;;1.30;;
22711;SDS011;11523;50.390;8.072;2022-12-22T09:10:08;3.80;;;1.25;;
22711;SDS011;11523;50.390;8.072;2022-12-22T09:12:34;1.58;;;0.90;;
22711;SDS011;11523;50.390;8.072;2022-12-22T09:15:07;1.90;;;0.85;;
22711;SDS011;11523;50.390;8.072;2022-12-22T09:17:40;1.48;;;1.20;;
22711;SDS011;11523;50.390;8.072;2022-12-22T09:20:07;1.63;;;1.10;;
22711;SDS011;11523;50.390;8.072;2022-12-22T09:22:33;2.95;;;1.10;;
22711;SDS011;11523;50.390;8.072;2022-12-22T09:24:59;3.75;;;1.10;;
22711;SDS011;11523;50.390;8.072;2022-12-22T09:27:25;1.98;;;0.80;;
22711;SDS011;11523;50.390;8.072;2022-12-22T09:29:51;4.68;;;1.10;;
22711;SDS011;11523;50.390;8.072;2022-12-22T09:32:17;1.48;;;0.85;;
22711;SDS011;11523;50.390;8.072;2022-12-22T09:34:43;1.92;;;1.33;;
22711;SDS011;11523;50.390;8.072;2022-12-22T09:37:09;2.53;;;1.02;;
22711;SDS011;11523;50.390;8.072;2022-12-22T09:39:35;2.55;;;0.90;;
22711;SDS011;11523;50.390;8.072;2022-12-22T09:42:01;2.13;;;1.40;;
22711;SDS011;11523;50.390;8.072;2022-12-22T09:44:31;2.00;;;1.00;;
22711;SDS011;11523;50.390;8.072;2022-12-22T09:46:58;7.25;;;4.28;;
22711;SDS011;11523;50.390;8.072;2022-12-22T09:49:25;1.60;;;1.30;;
22711;SDS011;11523;50.390;8.072;2022-12-22T09:51:53;1.52;;;1.20;;
22711;SDS011;11523;50.390;8.072;2022-12-22T09:54:20;1.98;;;1.05;;
22711;SDS011;11523;50.390;8.072;2022-12-22T09:56:46;3.30;;;1.35;;
22711;SDS011;11523;50.390;8.072;2022-12-22T09:59:13;1.40;;;1.30;;
22711;SDS011;11523;50.390;8.072;2022-12-22T10:01:56;3.67;;;1.00;;
22711;SDS011;11523;50.390;8.072;2022-12-22T10:09:40;2.85;;;0.90;;
22711;SDS011;11523;50.390;8.072;2022-12-22T10:12:10;2.20;;;1.00;;
22711;SDS011;11523;50.390;8.072;2022-12-22T10:14:39;2.15;;;1.00;;
22711;SDS011;11523;50.390;8.072;2022-12-22T10:17:16;1.10;;;0.80;;
22711;SDS011;11523;50.390;8.072;2022-12-22T10:19:42;1.10;;;0.90;;
22711;SDS011;11523;50.390;8.072;2022-12-22T10:24:53;1.20;;;1.08;;
22711;SDS011;11523;50.390;8.072;2022-12-22T10:27:20;1.15;;;1.05;;
22711;SDS011;11523;50.390;8.072;2022-12-22T10:29:46;1.98;;;1.10;;
22711;SDS011;11523;50.390;8.072;2022-12-22T10:32:17;2.05;;;1.25;;
22711;SDS011;11523;50.390;8.072;2022-12-22T10:34:57;3.42;;;1.27;;
22711;SDS011;11523;50.390;8.072;2022-12-22T10:37:33;2.75;;;1.70;;
22711;SDS011;11523;50.390;8.072;2022-12-22T10:40:19;1.88;;;1.35;;
22711;SDS011;11523;50.390;8.072;2022-12-22T10:42:47;3.00;;;1.10;;
22711;SDS011;11523;50.390;8.072;2022-12-22T10:45:15;3.70;;;1.20;;
22711;SDS011;11523;50.390;8.072;2022-12-22T10:47:45;1.73;;;1.20;;
22711;SDS011;11523;50.390;8.072;2022-12-22T10:50:11;3.05;;;1.08;;
22711;SDS011;11523;50.390;8.072;2022-12-22T10:52:37;1.20;;;1.10;;
22711;SDS011;11523;50.390;8.072;2022-12-22T10:55:14;1.33;;;0.93;;
22711;SDS011;11523;50.390;8.072;2022-12-22T10:57:40;2.45;;;1.10;;
22711;SDS011;11523;50.390;8.072;2022-12-22T11:02:57;2.00;;;1.20;;
22711;SDS011;11523;50.390;8.072;2022-12-22T11:05:23;5.38;;;1.25;;
22711;SDS011;11523;50.390;8.072;2022-12-22T11:07:49;1.95;;;1.23;;
22711;SDS011;11523;50.390;8.072;2022-12-22T11:10:25;1.50;;;1.40;;
22711;SDS011;11523;50.390;8.072;2022-12-22T11:16:39;1.40;;;1.30;;
22711;SDS011;11523;50.390;8.072;2022-12-22T11:18:37;1.73;;;1.40;;
22711;SDS011;11523;50.390;8.072;2022-12-22T11:21:19;1.88;;;1.25;;
22711;SDS011;11523;50.390;8.072;2022-12-22T11:26:29;1.83;;;1.50;;
22711;SDS011;11523;50.390;8.072;2022-12-22T11:34:02;2.75;;;2.22;;
22711;SDS011;11523;50.390;8.072;2022-12-22T11:36:37;2.70;;;2.50;;
22711;SDS011;11523;50.390;8.072;2022-12-22T11:39:12;2.83;;;2.55;;
22711;SDS011;11523;50.390;8.072;2022-12-22T11:41:46;3.17;;;2.38;;
22711;SDS011;11523;50.390;8.072;2022-12-22T11:47:09;4.22;;;3.38;;
22711;SDS011;11523;50.390;8.072;2022-12-22T11:52:27;6.75;;;5.20;;
22711;SDS011;11523;50.390;8.072;2022-12-22T12:00:21;5.28;;;4.78;;
22711;SDS011;11523;50.390;8.072;2022-12-22T12:08:10;7.07;;;5.05;;
22711;SDS011;11523;50.390;8.072;2022-12-22T12:16:33;4.30;;;3.90;;
22711;SDS011;11523;50.390;8.072;2022-12-22T12:21:45;5.88;;;4.97;;
22711;SDS011;11523;50.390;8.072;2022-12-22T12:24:23;8.02;;;6.10;;
22711;SDS011;11523;50.390;8.072;2022-12-22T12:29:34;5.40;;;4.65;;
22711;SDS011;11523;50.390;8.072;2022-12-22T12:32:02;5.78;;;5.07;;
22711;SDS011;11523;50.390;8.072;2022-12-22T12:34:31;7.50;;;5.75;;
22711;SDS011;11523;50.390;8.072;2022-12-22T12:37:02;6.68;;;5.75;;
22711;SDS011;11523;50.390;8.072;2022-12-22T12:39:48;5.13;;;4.63;;
22711;SDS011;11523;50.390;8.072;2022-12-22T12:44:47;7.47;;;5.50;;
22711;SDS011;11523;50.390;8.072;2022-12-22T12:47:24;6.78;;;5.25;;
22711;SDS011;11523;50.390;8.072;2022-12-22T12:49:51;8.10;;;6.40;;
22711;SDS011;11523;50.390;8.072;2022-12-22T12:52:16;4.97;;;4.47;;
22711;SDS011;11523;50.390;8.072;2022-12-22T12:54:43;8.85;;;5.90;;
22711;SDS011;11523;50.390;8.072;2022-12-22T12:57:21;7.13;;;5.65;;
22711;SDS011;11523;50.390;8.072;2022-12-22T12:59:48;7.18;;;6.13;;
22711;SDS011;11523;50.390;8.072;2022-12-22T13:10:22;4.80;;;3.80;;
22711;SDS011;11523;50.390;8.072;2022-12-22T13:12:50;4.65;;;3.58;;
22711;SDS011;11523;50.390;8.072;2022-12-22T13:15:30;4.13;;;3.72;;
22711;SDS011;11523;50.390;8.072;2022-12-22T13:17:57;4.22;;;3.83;;
22711;SDS011;11523;50.390;8.072;2022-12-22T13:20:28;5.30;;;3.70;;
22711;SDS011;11523;50.390;8.072;2022-12-22T13:22:56;4.18;;;3.78;;
22711;SDS011;11523;50.390;8.072;2022-12-22T13:25:23;4.15;;;3.60;;
22711;SDS011;11523;50.390;8.072;2022-12-22T13:27:50;3.65;;;3.35;;
22711;SDS011;11523;50.390;8.072;2022-12-22T13:30:18;5.07;;;3.95;;
22711;SDS011;11523;50.390;8.072;2022-12-22T13:32:46;5.28;;;4.03;;
22711;SDS011;11523;50.390;8.072;2022-12-22T13:35:14;3.80;;;3.50;;
22711;SDS011;11523;50.390;8.072;2022-12-22T13:37:42;4.10;;;3.70;;
22711;SDS011;11523;50.390;8.072;2022-12-22T13:40:14;3.67;;;3.38;;
22711;SDS011;11523;50.390;8.072;2022-12-22T13:42:42;4.03;;;3.63;;
22711;SDS011;11523;50.390;8.072;2022-12-22T13:45:13;3.35;;;3.05;;
22711;SDS011;11523;50.390;8.072;2022-12-22T13:47:41;3.95;;;3.53;;
22711;SDS011;11523;50.390;8.072;2022-12-22T13:50:15;4.40;;;4.00;;
22711;SDS011;11523;50.390;8.072;2022-12-22T13:52:41;5.22;;;4.68;;
22711;SDS011;11523;50.390;8.072;2022-12-22T13:55:17;6.40;;;4.95;;
22711;SDS011;11523;50.390;8.072;2022-12-22T13:57:45;5.30;;;4.80;;
22711;SDS011;11523;50.390;8.072;2022-12-22T14:00:22;5.75;;;5.13;;
22711;SDS011;11523;50.390;8.072;2022-12-22T14:02:49;6.53;;;5.93;;
22711;SDS011;11523;50.390;8.072;2022-12-22T14:05:15;5.90;;;5.20;;
22711;SDS011;11523;50.390;8.072;2022-12-22T14:07:57;6.30;;;5.70;;
22711;SDS011;11523;50.390;8.072;2022-12-22T14:10:28;6.30;;;5.70;;
22711;SDS011;11523;50.390;8.072;2022-12-22T14:12:55;6.18;;;5.47;;
22711;SDS011;11523;50.390;8.072;2022-12-22T14:15:21;7.72;;;6.05;;
22711;SDS011;11523;50.390;8.072;2022-12-22T14:17:47;6.38;;;5.75;;
22711;SDS011;11523;50.390;8.072;2022-12-22T14:22:44;6.10;;;5.50;;
22711;SDS011;11523;50.390;8.072;2022-12-22T14:25:13;5.53;;;4.93;;
22711;SDS011;11523;50.390;8.072;2022-12-22T14:27:41;5.88;;;5.25;;
22711;SDS011;11523;50.390;8.072;2022-12-22T14:30:21;5.28;;;4.75;;
22711;SDS011;11523;50.390;8.072;2022-12-22T14:32:48;6.47;;;5.05;;
22711;SDS011;11523;50.390;8.072;2022-12-22T14:35:16;5.85;;;5.25;;
22711;SDS011;11523;50.390;8.072;2022-12-22T14:37:46;4.30;;;3.85;;
22711;SDS011;11523;50.390;8.072;2022-12-22T14:40:14;4.57;;;3.88;;
22711;SDS011;11523;50.390;8.072;2022-12-22T14:42:53;6.03;;;4.50;;
22711;SDS011;11523;50.390;8.072;2022-12-22T14:45:19;6.07;;;4.47;;
22711;SDS011;11523;50.390;8.072;2022-12-22T14:47:45;4.78;;;4.22;;
22711;SDS011;11523;50.390;8.072;2022-12-22T14:50:25;5.15;;;4.47;;
22711;SDS011;11523;50.390;8.072;2022-12-22T14:52:57;5.47;;;4.90;;
22711;SDS011;11523;50.390;8.072;2022-12-22T14:55:26;5.68;;;3.83;;
22711;SDS011;11523;50.390;8.072;2022-12-22T14:57:54;6.32;;;3.10;;
22711;SDS011;11523;50.390;8.072;2022-12-22T15:02:55;4.00;;;2.97;;
22711;SDS011;11523;50.390;8.072;2022-12-22T15:07:57;3.33;;;2.80;;
22711;SDS011;11523;50.390;8.072;2022-12-22T15:10:24;3.78;;;3.20;;
22711;SDS011;11523;50.390;8.072;2022-12-22T15:12:51;3.45;;;3.03;;
22711;SDS011;11523;50.390;8.072;2022-12-22T15:15:33;3.88;;;2.92;;
22711;SDS011;11523;50.390;8.072;2022-12-22T15:17:59;3.33;;;3.00;;
22711;SDS011;11523;50.390;8.072;2022-12-22T15:20:26;2.63;;;2.42;;
22711;SDS011;11523;50.390;8.072;2022-12-22T15:22:53;5.85;;;2.40;;
22711;SDS011;11523;50.390;8.072;2022-12-22T15:25:22;5.95;;;2.17;;
22711;SDS011;11523;50.390;8.072;2022-12-22T15:27:49;2.90;;;2.33;;
22711;SDS011;11523;50.390;8.072;2022-12-22T15:30:17;2.78;;;2.22;;
22711;SDS011;11523;50.390;8.072;2022-12-22T15:32:43;2.03;;;1.80;;
22711;SDS011;11523;50.390;8.072;2022-12-22T15:35:13;1.83;;;1.60;;
22711;SDS011;11523;50.390;8.072;2022-12-22T15:37:39;1.90;;;1.73;;
22711;SDS011;11523;50.390;8.072;2022-12-22T15:40:11;1.88;;;1.65;;
22711;SDS011;11523;50.390;8.072;2022-12-22T15:42:37;2.90;;;1.58;;
22711;SDS011;11523;50.390;8.072;2022-12-22T15:45:03;3.20;;;1.60;;
22711;SDS011;11523;50.390;8.072;2022-12-22T15:47:29;1.58;;;1.25;;
22711;SDS011;11523;50.390;8.072;2022-12-22T15:49:55;1.45;;;1.15;;
22711;SDS011;11523;50.390;8.072;2022-12-22T15:52:21;1.90;;;1.40;;
22711;SDS011;11523;50.390;8.072;2022-12-22T15:54:47;1.65;;;1.55;;
22711;SDS011;11523;50.390;8.072;2022-12-22T15:57:13;1.75;;;1.60;;
22711;SDS011;11523;50.390;8.072;2022-12-22T15:59:39;3.28;;;1.25;;
22711;SDS011;11523;50.390;8.072;2022-12-22T16:02:08;1.45;;;1.23;;
22711;SDS011;11523;50.390;8.072;2022-12-22T16:04:35;1.67;;;1.23;;
22711;SDS011;11523;50.390;8.072;2022-12-22T16:07:01;2.00;;;1.40;;
22711;SDS011;11523;50.390;8.072;2022-12-22T16:09:27;2.10;;;1.15;;
22711;SDS011;11523;50.390;8.072;2022-12-22T16:11:56;1.33;;;1.08;;
22711;SDS011;11523;50.390;8.072;2022-12-22T16:14:22;2.55;;;1.40;;
22711;SDS011;11523;50.390;8.072;2022-12-22T16:16:49;1.48;;;1.38;;
22711;SDS011;11523;50.390;8.072;2022-12-22T16:19:15;1.80;;;1.50;;
22711;SDS011;11523;50.390;8.072;2022-12-22T16:21:42;3.10;;;1.48;;
22711;SDS011;11523;50.390;8.072;2022-12-22T16:24:15;4.25;;;1.85;;
22711;SDS011;11523;50.390;8.072;2022-12-22T16:26:45;2.13;;;1.77;;
22711;SDS011;11523;50.390;8.072;2022-12-22T16:29:13;2.35;;;1.42;;
22711;SDS011;11523;50.390;8.072;2022-12-22T16:31:39;2.67;;;1.60;;
22711;SDS011;11523;50.390;8.072;2022-12-22T16:34:08;2.20;;;1.27;;
22711;SDS011;11523;50.390;8.072;2022-12-22T16:36:34;1.73;;;1.35;;
22711;SDS011;11523;50.390;8.072;2022-12-22T16:38:59;1.77;;;1.40;;
22711;SDS011;11523;50.390;8.072;2022-12-22T16:41:25;2.80;;;1.90;;
22711;SDS011;11523;50.390;8.072;2022-12-22T16:43:54;2.25;;;1.58;;
22711;SDS011;11523;50.390;8.072;2022-12-22T16:46:21;3.05;;;1.70;;
22711;SDS011;11523;50.390;8.072;2022-12-22T16:48:52;4.57;;;1.52;;
22711;SDS011;11523;50.390;8.072;2022-12-22T16:51:23;2.25;;;1.60;;
22711;SDS011;11523;50.390;8.072;2022-12-22T16:53:50;2.28;;;1.52;;
22711;SDS011;11523;50.390;8.072;2022-12-22T16:56:17;1.88;;;1.30;;
22711;SDS011;11523;50.390;8.072;2022-12-22T16:58:44;2.03;;;1.25;;
22711;SDS011;11523;50.390;8.072;2022-12-22T17:03:45;2.08;;;1.60;;
22711;SDS011;11523;50.390;8.072;2022-12-22T17:06:11;1.55;;;1.45;;
22711;SDS011;11523;50.390;8.072;2022-12-22T17:08:37;2.63;;;2.00;;
22711;SDS011;11523;50.390;8.072;2022-12-22T17:11:19;2.08;;;1.58;;
22711;SDS011;11523;50.390;8.072;2022-12-22T17:13:46;2.22;;;1.88;;
22711;SDS011;11523;50.390;8.072;2022-12-22T17:16:19;1.95;;;1.77;;
22711;SDS011;11523;50.390;8.072;2022-12-22T17:18:45;2.30;;;2.10;;
22711;SDS011;11523;50.390;8.072;2022-12-22T17:21:11;2.00;;;1.80;;
22711;SDS011;11523;50.390;8.072;2022-12-22T17:23:45;1.80;;;1.70;;
22711;SDS011;11523;50.390;8.072;2022-12-22T17:26:12;1.52;;;1.42;;
22711;SDS011;11523;50.390;8.072;2022-12-22T17:28:39;2.22;;;1.88;;
22711;SDS011;11523;50.390;8.072;2022-12-22T17:31:05;2.45;;;2.08;;
22711;SDS011;11523;50.390;8.072;2022-12-22T17:33:31;2.53;;;1.90;;
22711;SDS011;11523;50.390;8.072;2022-12-22T17:35:57;5.53;;;1.95;;
22711;SDS011;11523;50.390;8.072;2022-12-22T17:38:24;2.15;;;1.98;;
22711;SDS011;11523;50.390;8.072;2022-12-22T17:40:52;3.40;;;2.13;;
22711;SDS011;11523;50.390;8.072;2022-12-22T17:43:20;5.10;;;2.90;;
22711;SDS011;11523;50.390;8.072;2022-12-22T17:45:46;5.43;;;3.00;;
22711;SDS011;11523;50.390;8.072;2022-12-22T17:48:13;2.42;;;1.90;;
22711;SDS011;11523;50.390;8.072;2022-12-22T17:50:40;3.50;;;2.30;;
22711;SDS011;11523;50.390;8.072;2022-12-22T17:53:08;2.58;;;1.98;;
22711;SDS011;11523;50.390;8.072;2022-12-22T17:55:34;3.30;;;2.10;;
22711;SDS011;11523;50.390;8.072;2022-12-22T17:58:00;2.75;;;1.60;;
22711;SDS011;11523;50.390;8.072;2022-12-22T18:00:28;2.28;;;1.60;;
22711;SDS011;11523;50.390;8.072;2022-12-22T18:02:54;3.83;;;1.30;;
22711;SDS011;11523;50.390;8.072;2022-12-22T18:05:21;4.30;;;1.50;;
22711;SDS011;11523;50.390;8.072;2022-12-22T18:07:48;4.90;;;1.38;;
22711;SDS011;11523;50.390;8.072;2022-12-22T18:10:19;3.55;;;1.52;;
22711;SDS011;11523;50.390;8.072;2022-12-22T18:12:47;3.03;;;1.60;;
22711;SDS011;11523;50.390;8.072;2022-12-22T18:15:14;5.03;;;1.90;;
22711;SDS011;11523;50.390;8.072;2022-12-22T18:17:40;7.68;;;1.60;;
22711;SDS011;11523;50.390;8.072;2022-12-22T18:20:08;6.15;;;3.20;;
22711;SDS011;11523;50.390;8.072;2022-12-22T18:22:34;3.47;;;2.30;;
22711;SDS011;11523;50.390;8.072;2022-12-22T18:25:00;2.90;;;1.88;;
22711;SDS011;11523;50.390;8.072;2022-12-22T18:27:26;5.30;;;1.90;;
22711;SDS011;11523;50.390;8.072;2022-12-22T18:29:52;6.80;;;2.03;;
22711;SDS011;11523;50.390;8.072;2022-12-22T18:32:18;5.40;;;1.92;;
22711;SDS011;11523;50.390;8.072;2022-12-22T18:34:44;4.22;;;1.80;;
22711;SDS011;11523;50.390;8.072;2022-12-22T18:37:11;5.78;;;2.42;;
22711;SDS011;11523;50.390;8.072;2022-12-22T18:39:38;6.43;;;2.10;;
22711;SDS011;11523;50.390;8.072;2022-12-22T18:42:20;5.13;;;2.25;;
22711;SDS011;11523;50.390;8.072;2022-12-22T18:44:46;5.45;;;2.65;;
22711;SDS011;11523;50.390;8.072;2022-12-22T18:47:12;5.10;;;2.20;;
22711;SDS011;11523;50.390;8.072;2022-12-22T18:49:38;7.07;;;2.63;;
22711;SDS011;11523;50.390;8.072;2022-12-22T18:52:12;8.48;;;2.72;;
22711;SDS011;11523;50.390;8.072;2022-12-22T18:54:38;4.57;;;2.60;;
22711;SDS011;11523;50.390;8.072;2022-12-22T18:57:09;7.03;;;3.00;;
22711;SDS011;11523;50.390;8.072;2022-12-22T18:59:36;8.23;;;2.85;;
22711;SDS011;11523;50.390;8.072;2022-12-22T19:02:15;8.32;;;2.83;;
22711;SDS011;11523;50.390;8.072;2022-12-22T19:04:42;6.53;;;2.72;;
22711;SDS011;11523;50.390;8.072;2022-12-22T19:07:13;8.68;;;2.90;;
22711;SDS011;11523;50.390;8.072;2022-12-22T19:09:39;7.57;;;2.63;;
22711;SDS011;11523;50.390;8.072;2022-12-22T19:12:08;9.90;;;3.22;;
22711;SDS011;11523;50.390;8.072;2022-12-22T19:14:34;8.57;;;3.10;;
22711;SDS011;11523;50.390;8.072;2022-12-22T19:17:00;8.80;;;2.95;;
22711;SDS011;11523;50.390;8.072;2022-12-22T19:19:26;7.93;;;2.85;;